Hauptseite
METAR-TAF:

METAR-TAF

Flughäfen :

Flughafen Marka International

Amman, Jordanien

Breite: 31-59N, Länge: 035-59E, Höhe: 767 m

Beobachtung

Neuester Wetterbericht von vor 56 Minuten, um 21:00 UTC
Wind 8 kt aus Nord/Nordwest
Temperatur 27°C
Luftfeuchtigkeit 34%
Luftdruck 1010 hPa
Sichtweite: 5000 m
trockener Dunst

METAR: OJAM 162100Z 33008KT 5000 HZ NSC 27/10 Q1010 NOSIG

Zeit: 00:56 (21:56 UTC)

Prognose

Neuester Wetterbericht von vor 5 Stunden und 6 Minuten, um 16:50 UTC
Gültige Prognose vom 16 um 18 UTC bis 17 um 24 UTC
Wind 10 kt aus Nordwest
Sichtweite: 5000 m
trockener Dunst
Übergehend zu
vom 16 um 21 UTC bis 16 um 23 UTC
Wind 2 kt aus unterschiedlichen Richtungen

TAF: OJAM 161650Z 1618/1724 32010KT 5000 HZ NSC BECMG 1621/1623 VRB02KT

Wetterbeobachtungen und Prognosen von mehr als 4000 Flughäfen (METAR und TAF Bericht).

Die verfügbaren Stationen werden durch gelbe und rote Markierungen auf der Karte dargestellt.

Führen Sie die Maus auf sie, um den Namen der Station zu sehen.

Darauf klicken, um die Beobachtung von Wetterbeobachtungen und Prognosen zu sehen.

Um die Karte zu ändern : klicken Sie auf den grünen Tasten mit einem schwarzen Kreuz Zum Vergrößern, auf den grünen Button mit einem Gedankenstrich zu verkleinern, oder auf die grünen Pfeile für benachbarte Karten.


METAR-TAF: